sensor_id;sensor_type;location;lat;lon;timestamp;P1;durP1;ratioP1;P2;durP2;ratioP2
63930;SDS011;50111;48.114;-2.066;2022-08-19T00:02:23;2.80;;;1.63;;
63930;SDS011;50111;48.114;-2.066;2022-08-19T00:04:49;3.85;;;1.70;;
63930;SDS011;50111;48.114;-2.066;2022-08-19T00:07:18;2.88;;;1.80;;
63930;SDS011;50111;48.114;-2.066;2022-08-19T00:09:44;2.45;;;1.50;;
63930;SDS011;50111;48.114;-2.066;2022-08-19T00:12:10;3.08;;;2.00;;
63930;SDS011;50111;48.114;-2.066;2022-08-19T00:14:36;1.98;;;1.52;;
63930;SDS011;50111;48.114;-2.066;2022-08-19T00:17:03;2.40;;;1.63;;
63930;SDS011;50111;48.114;-2.066;2022-08-19T00:19:30;1.90;;;1.48;;
63930;SDS011;50111;48.114;-2.066;2022-08-19T00:21:56;3.92;;;1.63;;
63930;SDS011;50111;48.114;-2.066;2022-08-19T00:24:22;3.67;;;2.13;;
63930;SDS011;50111;48.114;-2.066;2022-08-19T00:26:48;3.45;;;1.95;;
63930;SDS011;50111;48.114;-2.066;2022-08-19T00:29:16;4.47;;;1.80;;
63930;SDS011;50111;48.114;-2.066;2022-08-19T00:31:42;2.80;;;1.90;;
63930;SDS011;50111;48.114;-2.066;2022-08-19T00:34:09;3.25;;;1.85;;
63930;SDS011;50111;48.114;-2.066;2022-08-19T00:36:36;5.10;;;2.08;;
63930;SDS011;50111;48.114;-2.066;2022-08-19T00:39:03;2.80;;;1.60;;
63930;SDS011;50111;48.114;-2.066;2022-08-19T00:41:29;2.95;;;1.98;;
63930;SDS011;50111;48.114;-2.066;2022-08-19T00:46:24;3.65;;;1.98;;
63930;SDS011;50111;48.114;-2.066;2022-08-19T00:48:50;3.88;;;1.63;;
63930;SDS011;50111;48.114;-2.066;2022-08-19T00:51:16;4.45;;;2.00;;
63930;SDS011;50111;48.114;-2.066;2022-08-19T00:53:42;3.33;;;1.70;;
63930;SDS011;50111;48.114;-2.066;2022-08-19T00:56:08;4.75;;;2.00;;
63930;SDS011;50111;48.114;-2.066;2022-08-19T00:58:36;3.63;;;1.70;;
63930;SDS011;50111;48.114;-2.066;2022-08-19T01:01:03;3.65;;;2.17;;
63930;SDS011;50111;48.114;-2.066;2022-08-19T01:03:29;5.13;;;2.10;;
63930;SDS011;50111;48.114;-2.066;2022-08-19T01:05:55;2.83;;;2.20;;
63930;SDS011;50111;48.114;-2.066;2022-08-19T01:08:21;3.58;;;2.08;;
63930;SDS011;50111;48.114;-2.066;2022-08-19T01:10:49;2.70;;;1.90;;
63930;SDS011;50111;48.114;-2.066;2022-08-19T01:13:17;4.53;;;2.08;;
63930;SDS011;50111;48.114;-2.066;2022-08-19T01:15:45;2.67;;;2.03;;
63930;SDS011;50111;48.114;-2.066;2022-08-19T01:18:12;2.58;;;1.60;;
63930;SDS011;50111;48.114;-2.066;2022-08-19T01:20:39;2.95;;;1.80;;
63930;SDS011;50111;48.114;-2.066;2022-08-19T01:23:06;6.80;;;2.15;;
63930;SDS011;50111;48.114;-2.066;2022-08-19T01:25:35;2.67;;;1.80;;
63930;SDS011;50111;48.114;-2.066;2022-08-19T01:28:02;4.32;;;2.00;;
63930;SDS011;50111;48.114;-2.066;2022-08-19T01:30:30;2.63;;;1.80;;
63930;SDS011;50111;48.114;-2.066;2022-08-19T01:32:57;3.15;;;1.85;;
63930;SDS011;50111;48.114;-2.066;2022-08-19T01:35:25;3.40;;;1.80;;
63930;SDS011;50111;48.114;-2.066;2022-08-19T01:37:53;3.85;;;2.10;;
63930;SDS011;50111;48.114;-2.066;2022-08-19T01:40:20;2.13;;;1.92;;
63930;SDS011;50111;48.114;-2.066;2022-08-19T01:42:47;1.60;;;1.48;;
63930;SDS011;50111;48.114;-2.066;2022-08-19T01:45:13;3.15;;;1.98;;
63930;SDS011;50111;48.114;-2.066;2022-08-19T01:47:39;2.47;;;1.60;;
63930;SDS011;50111;48.114;-2.066;2022-08-19T01:50:06;6.20;;;1.83;;
63930;SDS011;50111;48.114;-2.066;2022-08-19T01:52:34;3.00;;;2.05;;
63930;SDS011;50111;48.114;-2.066;2022-08-19T01:55:01;3.00;;;1.80;;
63930;SDS011;50111;48.114;-2.066;2022-08-19T01:57:27;2.83;;;1.75;;
63930;SDS011;50111;48.114;-2.066;2022-08-19T01:59:53;3.03;;;1.52;;
63930;SDS011;50111;48.114;-2.066;2022-08-19T02:02:19;4.30;;;1.73;;
63930;SDS011;50111;48.114;-2.066;2022-08-19T02:04:45;3.40;;;1.90;;
63930;SDS011;50111;48.114;-2.066;2022-08-19T02:07:11;3.45;;;1.88;;
63930;SDS011;50111;48.114;-2.066;2022-08-19T02:09:37;2.65;;;1.95;;
63930;SDS011;50111;48.114;-2.066;2022-08-19T02:12:04;3.67;;;2.03;;
63930;SDS011;50111;48.114;-2.066;2022-08-19T02:14:30;4.22;;;1.90;;
63930;SDS011;50111;48.114;-2.066;2022-08-19T02:16:56;6.35;;;4.13;;
63930;SDS011;50111;48.114;-2.066;2022-08-19T02:19:22;3.58;;;1.95;;
63930;SDS011;50111;48.114;-2.066;2022-08-19T02:21:48;2.95;;;1.52;;
63930;SDS011;50111;48.114;-2.066;2022-08-19T02:24:14;2.97;;;1.92;;
63930;SDS011;50111;48.114;-2.066;2022-08-19T02:26:40;3.47;;;1.83;;
63930;SDS011;50111;48.114;-2.066;2022-08-19T02:29:06;2.67;;;1.75;;
63930;SDS011;50111;48.114;-2.066;2022-08-19T02:31:32;4.05;;;2.35;;
63930;SDS011;50111;48.114;-2.066;2022-08-19T02:33:58;2.35;;;1.70;;
63930;SDS011;50111;48.114;-2.066;2022-08-19T02:36:25;2.60;;;1.70;;
63930;SDS011;50111;48.114;-2.066;2022-08-19T02:38:52;4.18;;;2.22;;
63930;SDS011;50111;48.114;-2.066;2022-08-19T02:41:20;2.85;;;1.73;;
63930;SDS011;50111;48.114;-2.066;2022-08-19T02:43:46;2.90;;;1.75;;
63930;SDS011;50111;48.114;-2.066;2022-08-19T02:46:13;3.28;;;1.75;;
63930;SDS011;50111;48.114;-2.066;2022-08-19T02:48:45;2.35;;;1.75;;
63930;SDS011;50111;48.114;-2.066;2022-08-19T02:51:15;2.35;;;1.73;;
63930;SDS011;50111;48.114;-2.066;2022-08-19T02:53:41;3.83;;;1.67;;
63930;SDS011;50111;48.114;-2.066;2022-08-19T02:56:07;2.30;;;1.52;;
63930;SDS011;50111;48.114;-2.066;2022-08-19T02:58:34;4.72;;;2.15;;
63930;SDS011;50111;48.114;-2.066;2022-08-19T03:01:00;4.03;;;1.98;;
63930;SDS011;50111;48.114;-2.066;2022-08-19T03:03:27;3.72;;;2.55;;
63930;SDS011;50111;48.114;-2.066;2022-08-19T03:06:02;2.80;;;2.08;;
63930;SDS011;50111;48.114;-2.066;2022-08-19T03:08:28;2.83;;;1.90;;
63930;SDS011;50111;48.114;-2.066;2022-08-19T03:10:55;4.43;;;2.22;;
63930;SDS011;50111;48.114;-2.066;2022-08-19T03:13:21;3.55;;;2.20;;
63930;SDS011;50111;48.114;-2.066;2022-08-19T03:15:48;3.90;;;2.17;;
63930;SDS011;50111;48.114;-2.066;2022-08-19T03:18:15;3.78;;;2.00;;
63930;SDS011;50111;48.114;-2.066;2022-08-19T03:20:42;4.55;;;2.40;;
63930;SDS011;50111;48.114;-2.066;2022-08-19T03:23:09;3.92;;;2.30;;
63930;SDS011;50111;48.114;-2.066;2022-08-19T03:25:39;3.60;;;2.15;;
63930;SDS011;50111;48.114;-2.066;2022-08-19T03:28:07;3.38;;;1.90;;
63930;SDS011;50111;48.114;-2.066;2022-08-19T03:30:34;3.60;;;2.20;;
63930;SDS011;50111;48.114;-2.066;2022-08-19T03:33:00;3.90;;;2.10;;
63930;SDS011;50111;48.114;-2.066;2022-08-19T03:35:26;2.58;;;1.90;;
63930;SDS011;50111;48.114;-2.066;2022-08-19T03:37:52;2.60;;;1.90;;
63930;SDS011;50111;48.114;-2.066;2022-08-19T03:40:18;4.45;;;2.38;;
63930;SDS011;50111;48.114;-2.066;2022-08-19T03:42:44;3.10;;;1.98;;
63930;SDS011;50111;48.114;-2.066;2022-08-19T03:45:11;3.70;;;2.35;;
63930;SDS011;50111;48.114;-2.066;2022-08-19T03:47:37;2.83;;;2.10;;
63930;SDS011;50111;48.114;-2.066;2022-08-19T03:50:03;4.38;;;2.10;;
63930;SDS011;50111;48.114;-2.066;2022-08-19T03:52:29;3.88;;;2.30;;
63930;SDS011;50111;48.114;-2.066;2022-08-19T03:54:55;3.65;;;1.90;;
63930;SDS011;50111;48.114;-2.066;2022-08-19T03:57:21;3.33;;;2.10;;
63930;SDS011;50111;48.114;-2.066;2022-08-19T03:59:47;3.70;;;2.13;;
63930;SDS011;50111;48.114;-2.066;2022-08-19T04:02:13;3.78;;;2.13;;
63930;SDS011;50111;48.114;-2.066;2022-08-19T04:04:40;4.90;;;2.15;;
63930;SDS011;50111;48.114;-2.066;2022-08-19T04:07:08;3.70;;;2.10;;
63930;SDS011;50111;48.114;-2.066;2022-08-19T04:09:34;3.00;;;2.15;;
63930;SDS011;50111;48.114;-2.066;2022-08-19T04:12:03;2.60;;;1.90;;
63930;SDS011;50111;48.114;-2.066;2022-08-19T04:14:30;4.50;;;2.35;;
63930;SDS011;50111;48.114;-2.066;2022-08-19T04:16:57;3.50;;;2.40;;
63930;SDS011;50111;48.114;-2.066;2022-08-19T04:19:23;3.55;;;2.13;;
63930;SDS011;50111;48.114;-2.066;2022-08-19T04:21:51;2.95;;;2.15;;
63930;SDS011;50111;48.114;-2.066;2022-08-19T04:24:17;2.35;;;1.88;;
63930;SDS011;50111;48.114;-2.066;2022-08-19T04:26:45;3.72;;;2.45;;
63930;SDS011;50111;48.114;-2.066;2022-08-19T04:29:13;3.72;;;2.20;;
63930;SDS011;50111;48.114;-2.066;2022-08-19T04:31:40;5.82;;;2.75;;
63930;SDS011;50111;48.114;-2.066;2022-08-19T04:34:07;4.47;;;2.35;;
63930;SDS011;50111;48.114;-2.066;2022-08-19T04:36:36;3.53;;;2.08;;
63930;SDS011;50111;48.114;-2.066;2022-08-19T04:39:04;4.40;;;2.47;;
63930;SDS011;50111;48.114;-2.066;2022-08-19T04:41:30;4.55;;;2.55;;
63930;SDS011;50111;48.114;-2.066;2022-08-19T04:44:15;4.82;;;2.40;;
63930;SDS011;50111;48.114;-2.066;2022-08-19T04:46:47;3.33;;;2.40;;
63930;SDS011;50111;48.114;-2.066;2022-08-19T04:49:14;5.90;;;2.72;;
63930;SDS011;50111;48.114;-2.066;2022-08-19T04:51:42;4.75;;;2.63;;
63930;SDS011;50111;48.114;-2.066;2022-08-19T04:54:09;4.40;;;2.53;;
63930;SDS011;50111;48.114;-2.066;2022-08-19T04:56:35;4.15;;;2.70;;
63930;SDS011;50111;48.114;-2.066;2022-08-19T04:59:01;4.35;;;2.53;;
63930;SDS011;50111;48.114;-2.066;2022-08-19T05:01:31;3.38;;;2.25;;
63930;SDS011;50111;48.114;-2.066;2022-08-19T05:03:58;5.18;;;2.70;;
63930;SDS011;50111;48.114;-2.066;2022-08-19T05:06:25;5.13;;;2.90;;
63930;SDS011;50111;48.114;-2.066;2022-08-19T05:08:51;4.72;;;2.42;;
63930;SDS011;50111;48.114;-2.066;2022-08-19T05:11:25;4.90;;;2.50;;
63930;SDS011;50111;48.114;-2.066;2022-08-19T05:13:51;4.47;;;2.30;;
63930;SDS011;50111;48.114;-2.066;2022-08-19T05:16:19;6.35;;;2.60;;
63930;SDS011;50111;48.114;-2.066;2022-08-19T05:18:45;4.85;;;2.60;;
63930;SDS011;50111;48.114;-2.066;2022-08-19T05:21:31;4.78;;;2.67;;
63930;SDS011;50111;48.114;-2.066;2022-08-19T05:24:16;5.70;;;3.00;;
63930;SDS011;50111;48.114;-2.066;2022-08-19T05:26:43;4.63;;;2.20;;
63930;SDS011;50111;48.114;-2.066;2022-08-19T05:29:14;8.50;;;2.75;;
63930;SDS011;50111;48.114;-2.066;2022-08-19T05:31:40;4.93;;;2.33;;
63930;SDS011;50111;48.114;-2.066;2022-08-19T05:34:07;4.20;;;2.30;;
63930;SDS011;50111;48.114;-2.066;2022-08-19T05:36:44;3.90;;;2.50;;
63930;SDS011;50111;48.114;-2.066;2022-08-19T05:39:11;6.00;;;2.42;;
63930;SDS011;50111;48.114;-2.066;2022-08-19T05:41:42;3.72;;;2.40;;
63930;SDS011;50111;48.114;-2.066;2022-08-19T05:46:39;4.50;;;2.80;;
63930;SDS011;50111;48.114;-2.066;2022-08-19T05:49:05;8.68;;;2.85;;
63930;SDS011;50111;48.114;-2.066;2022-08-19T05:51:32;5.90;;;2.42;;
63930;SDS011;50111;48.114;-2.066;2022-08-19T05:53:59;5.18;;;2.63;;
63930;SDS011;50111;48.114;-2.066;2022-08-19T05:56:25;7.90;;;2.67;;
63930;SDS011;50111;48.114;-2.066;2022-08-19T05:58:51;4.05;;;2.50;;
63930;SDS011;50111;48.114;-2.066;2022-08-19T06:01:19;6.68;;;2.72;;
63930;SDS011;50111;48.114;-2.066;2022-08-19T06:03:46;8.23;;;3.05;;
63930;SDS011;50111;48.114;-2.066;2022-08-19T06:06:13;5.95;;;2.75;;
63930;SDS011;50111;48.114;-2.066;2022-08-19T06:08:39;5.75;;;3.22;;
63930;SDS011;50111;48.114;-2.066;2022-08-19T06:11:50;6.95;;;3.20;;
63930;SDS011;50111;48.114;-2.066;2022-08-19T06:14:00;5.20;;;3.00;;
63930;SDS011;50111;48.114;-2.066;2022-08-19T06:16:27;6.45;;;3.17;;
63930;SDS011;50111;48.114;-2.066;2022-08-19T06:18:54;6.47;;;3.08;;
63930;SDS011;50111;48.114;-2.066;2022-08-19T06:21:22;8.10;;;3.53;;
63930;SDS011;50111;48.114;-2.066;2022-08-19T06:23:49;5.57;;;3.00;;
63930;SDS011;50111;48.114;-2.066;2022-08-19T06:26:16;7.55;;;3.40;;
63930;SDS011;50111;48.114;-2.066;2022-08-19T06:28:43;6.65;;;3.30;;
63930;SDS011;50111;48.114;-2.066;2022-08-19T06:31:12;5.97;;;2.65;;
63930;SDS011;50111;48.114;-2.066;2022-08-19T06:33:39;7.25;;;3.08;;
63930;SDS011;50111;48.114;-2.066;2022-08-19T06:36:05;6.43;;;3.13;;
63930;SDS011;50111;48.114;-2.066;2022-08-19T06:38:32;7.68;;;3.15;;
63930;SDS011;50111;48.114;-2.066;2022-08-19T06:41:02;8.23;;;3.63;;
63930;SDS011;50111;48.114;-2.066;2022-08-19T06:43:28;6.72;;;2.75;;
63930;SDS011;50111;48.114;-2.066;2022-08-19T06:45:54;8.57;;;3.60;;
63930;SDS011;50111;48.114;-2.066;2022-08-19T06:48:20;5.72;;;3.00;;
63930;SDS011;50111;48.114;-2.066;2022-08-19T06:50:46;8.65;;;3.55;;
63930;SDS011;50111;48.114;-2.066;2022-08-19T06:53:13;5.95;;;3.17;;
63930;SDS011;50111;48.114;-2.066;2022-08-19T06:55:39;7.15;;;3.88;;
63930;SDS011;50111;48.114;-2.066;2022-08-19T06:58:05;9.63;;;4.15;;
63930;SDS011;50111;48.114;-2.066;2022-08-19T07:00:31;11.65;;;4.13;;
63930;SDS011;50111;48.114;-2.066;2022-08-19T07:02:58;8.15;;;3.30;;
63930;SDS011;50111;48.114;-2.066;2022-08-19T07:05:25;8.25;;;3.60;;
63930;SDS011;50111;48.114;-2.066;2022-08-19T07:07:51;9.43;;;3.80;;
63930;SDS011;50111;48.114;-2.066;2022-08-19T07:10:17;9.82;;;3.78;;
63930;SDS011;50111;48.114;-2.066;2022-08-19T07:12:44;13.20;;;3.70;;
63930;SDS011;50111;48.114;-2.066;2022-08-19T07:15:10;8.20;;;4.07;;
63930;SDS011;50111;48.114;-2.066;2022-08-19T07:17:37;12.20;;;4.10;;
63930;SDS011;50111;48.114;-2.066;2022-08-19T07:20:04;9.45;;;3.90;;
63930;SDS011;50111;48.114;-2.066;2022-08-19T07:22:32;8.13;;;3.80;;
63930;SDS011;50111;48.114;-2.066;2022-08-19T07:24:58;10.40;;;3.95;;
63930;SDS011;50111;48.114;-2.066;2022-08-19T07:27:24;9.05;;;3.83;;
63930;SDS011;50111;48.114;-2.066;2022-08-19T07:29:51;8.63;;;3.92;;
63930;SDS011;50111;48.114;-2.066;2022-08-19T07:32:18;11.07;;;3.90;;
63930;SDS011;50111;48.114;-2.066;2022-08-19T07:34:44;11.40;;;3.95;;
63930;SDS011;50111;48.114;-2.066;2022-08-19T07:37:10;9.02;;;3.88;;
63930;SDS011;50111;48.114;-2.066;2022-08-19T07:39:36;9.95;;;4.20;;
63930;SDS011;50111;48.114;-2.066;2022-08-19T07:42:04;8.65;;;3.70;;
63930;SDS011;50111;48.114;-2.066;2022-08-19T07:44:31;10.23;;;3.38;;
63930;SDS011;50111;48.114;-2.066;2022-08-19T07:46:58;8.27;;;3.85;;
63930;SDS011;50111;48.114;-2.066;2022-08-19T07:49:25;9.38;;;3.75;;
63930;SDS011;50111;48.114;-2.066;2022-08-19T07:51:56;8.50;;;3.50;;
63930;SDS011;50111;48.114;-2.066;2022-08-19T07:54:22;9.07;;;3.78;;
63930;SDS011;50111;48.114;-2.066;2022-08-19T07:56:49;8.32;;;3.60;;
63930;SDS011;50111;48.114;-2.066;2022-08-19T07:59:16;8.43;;;2.95;;
63930;SDS011;50111;48.114;-2.066;2022-08-19T08:01:42;8.23;;;3.30;;
63930;SDS011;50111;48.114;-2.066;2022-08-19T08:04:09;9.07;;;3.03;;
63930;SDS011;50111;48.114;-2.066;2022-08-19T08:06:54;9.30;;;2.80;;
63930;SDS011;50111;48.114;-2.066;2022-08-19T08:09:40;5.03;;;2.83;;
63930;SDS011;50111;48.114;-2.066;2022-08-19T08:12:08;6.25;;;2.63;;
63930;SDS011;50111;48.114;-2.066;2022-08-19T08:14:37;5.55;;;2.80;;
63930;SDS011;50111;48.114;-2.066;2022-08-19T08:17:04;6.45;;;2.40;;
63930;SDS011;50111;48.114;-2.066;2022-08-19T08:19:30;5.35;;;2.58;;
63930;SDS011;50111;48.114;-2.066;2022-08-19T08:21:57;7.47;;;2.63;;
63930;SDS011;50111;48.114;-2.066;2022-08-19T08:24:24;8.00;;;2.70;;
63930;SDS011;50111;48.114;-2.066;2022-08-19T08:26:51;4.55;;;2.35;;
63930;SDS011;50111;48.114;-2.066;2022-08-19T08:29:17;6.63;;;2.70;;
63930;SDS011;50111;48.114;-2.066;2022-08-19T08:31:44;11.82;;;3.03;;
63930;SDS011;50111;48.114;-2.066;2022-08-19T08:34:11;5.32;;;2.92;;
63930;SDS011;50111;48.114;-2.066;2022-08-19T08:36:37;10.65;;;3.60;;
63930;SDS011;50111;48.114;-2.066;2022-08-19T08:39:11;5.22;;;2.50;;
63930;SDS011;50111;48.114;-2.066;2022-08-19T08:44:03;23.83;;;4.82;;
63930;SDS011;50111;48.114;-2.066;2022-08-19T08:51:45;8.88;;;3.60;;
63930;SDS011;50111;48.114;-2.066;2022-08-19T08:54:13;9.30;;;3.13;;
63930;SDS011;50111;48.114;-2.066;2022-08-19T08:56:40;4.00;;;2.40;;
63930;SDS011;50111;48.114;-2.066;2022-08-19T08:59:10;5.53;;;2.30;;
63930;SDS011;50111;48.114;-2.066;2022-08-19T09:01:38;5.47;;;3.00;;
63930;SDS011;50111;48.114;-2.066;2022-08-19T09:04:04;5.72;;;2.30;;
63930;SDS011;50111;48.114;-2.066;2022-08-19T09:06:35;5.65;;;2.58;;
63930;SDS011;50111;48.114;-2.066;2022-08-19T09:16:23;3.97;;;2.20;;
63930;SDS011;50111;48.114;-2.066;2022-08-19T09:18:54;5.47;;;2.15;;
63930;SDS011;50111;48.114;-2.066;2022-08-19T09:21:20;6.45;;;1.98;;
63930;SDS011;50111;48.114;-2.066;2022-08-19T09:23:47;4.80;;;1.80;;
63930;SDS011;50111;48.114;-2.066;2022-08-19T09:26:15;6.47;;;3.75;;
63930;SDS011;50111;48.114;-2.066;2022-08-19T09:28:42;3.33;;;2.03;;
63930;SDS011;50111;48.114;-2.066;2022-08-19T09:31:09;5.72;;;2.20;;
63930;SDS011;50111;48.114;-2.066;2022-08-19T09:33:36;5.35;;;2.20;;
63930;SDS011;50111;48.114;-2.066;2022-08-19T09:36:09;8.32;;;2.40;;
63930;SDS011;50111;48.114;-2.066;2022-08-19T09:38:35;6.35;;;1.90;;
63930;SDS011;50111;48.114;-2.066;2022-08-19T09:41:04;4.50;;;1.98;;
63930;SDS011;50111;48.114;-2.066;2022-08-19T09:43:31;6.15;;;2.47;;
63930;SDS011;50111;48.114;-2.066;2022-08-19T09:45:58;6.72;;;2.30;;
63930;SDS011;50111;48.114;-2.066;2022-08-19T09:48:25;7.65;;;2.80;;
63930;SDS011;50111;48.114;-2.066;2022-08-19T09:50:51;7.97;;;2.20;;
63930;SDS011;50111;48.114;-2.066;2022-08-19T09:53:17;2.92;;;1.60;;
63930;SDS011;50111;48.114;-2.066;2022-08-19T09:55:43;4.57;;;1.83;;
63930;SDS011;50111;48.114;-2.066;2022-08-19T09:58:09;5.88;;;2.00;;
63930;SDS011;50111;48.114;-2.066;2022-08-19T10:00:36;5.43;;;1.90;;
63930;SDS011;50111;48.114;-2.066;2022-08-19T10:03:03;5.22;;;2.03;;
63930;SDS011;50111;48.114;-2.066;2022-08-19T10:05:30;9.55;;;2.17;;
63930;SDS011;50111;48.114;-2.066;2022-08-19T10:08:21;6.97;;;2.28;;
63930;SDS011;50111;48.114;-2.066;2022-08-19T10:10:48;5.97;;;2.38;;
63930;SDS011;50111;48.114;-2.066;2022-08-19T10:13:15;4.97;;;2.10;;
63930;SDS011;50111;48.114;-2.066;2022-08-19T10:15:42;6.10;;;2.13;;
63930;SDS011;50111;48.114;-2.066;2022-08-19T10:18:08;5.28;;;1.85;;
63930;SDS011;50111;48.114;-2.066;2022-08-19T10:20:35;5.72;;;2.22;;
63930;SDS011;50111;48.114;-2.066;2022-08-19T10:23:01;3.00;;;1.85;;
63930;SDS011;50111;48.114;-2.066;2022-08-19T10:25:28;6.10;;;1.73;;
63930;SDS011;50111;48.114;-2.066;2022-08-19T10:27:54;3.63;;;1.50;;
63930;SDS011;50111;48.114;-2.066;2022-08-19T10:30:20;5.20;;;1.83;;
63930;SDS011;50111;48.114;-2.066;2022-08-19T10:32:46;5.03;;;1.73;;
63930;SDS011;50111;48.114;-2.066;2022-08-19T10:35:13;3.55;;;1.70;;
63930;SDS011;50111;48.114;-2.066;2022-08-19T10:37:39;3.78;;;1.65;;
63930;SDS011;50111;48.114;-2.066;2022-08-19T10:40:06;3.20;;;1.70;;
63930;SDS011;50111;48.114;-2.066;2022-08-19T10:42:33;4.20;;;1.98;;
63930;SDS011;50111;48.114;-2.066;2022-08-19T10:44:59;3.15;;;1.40;;
63930;SDS011;50111;48.114;-2.066;2022-08-19T10:47:25;5.75;;;1.70;;
63930;SDS011;50111;48.114;-2.066;2022-08-19T10:49:52;2.95;;;1.65;;
63930;SDS011;50111;48.114;-2.066;2022-08-19T10:52:38;2.17;;;1.65;;
63930;SDS011;50111;48.114;-2.066;2022-08-19T10:55:06;2.65;;;1.63;;
63930;SDS011;50111;48.114;-2.066;2022-08-19T10:57:51;3.40;;;1.30;;
63930;SDS011;50111;48.114;-2.066;2022-08-19T11:00:18;3.20;;;1.40;;
63930;SDS011;50111;48.114;-2.066;2022-08-19T11:02:44;2.60;;;1.17;;
63930;SDS011;50111;48.114;-2.066;2022-08-19T11:05:10;1.13;;;1.10;;
63930;SDS011;50111;48.114;-2.066;2022-08-19T11:07:40;3.03;;;1.25;;
63930;SDS011;50111;48.114;-2.066;2022-08-19T11:10:06;1.37;;;1.03;;
63930;SDS011;50111;48.114;-2.066;2022-08-19T11:12:32;3.22;;;1.10;;
63930;SDS011;50111;48.114;-2.066;2022-08-19T11:14:59;0.65;;;0.65;;
63930;SDS011;50111;48.114;-2.066;2022-08-19T11:17:25;2.72;;;1.23;;
63930;SDS011;50111;48.114;-2.066;2022-08-19T11:19:51;3.08;;;0.88;;
63930;SDS011;50111;48.114;-2.066;2022-08-19T11:22:17;1.52;;;1.00;;
63930;SDS011;50111;48.114;-2.066;2022-08-19T11:24:43;2.25;;;1.00;;
63930;SDS011;50111;48.114;-2.066;2022-08-19T11:27:09;4.75;;;1.27;;
63930;SDS011;50111;48.114;-2.066;2022-08-19T11:29:38;4.47;;;1.50;;
63930;SDS011;50111;48.114;-2.066;2022-08-19T11:32:05;2.75;;;1.30;;
63930;SDS011;50111;48.114;-2.066;2022-08-19T11:34:32;2.35;;;0.90;;
63930;SDS011;50111;48.114;-2.066;2022-08-19T11:36:59;3.38;;;1.00;;
63930;SDS011;50111;48.114;-2.066;2022-08-19T11:39:27;1.45;;;0.82;;
63930;SDS011;50111;48.114;-2.066;2022-08-19T11:41:53;2.00;;;0.88;;
63930;SDS011;50111;48.114;-2.066;2022-08-19T11:44:19;0.80;;;0.70;;
63930;SDS011;50111;48.114;-2.066;2022-08-19T11:46:45;0.70;;;0.40;;
63930;SDS011;50111;48.114;-2.066;2022-08-19T11:49:12;1.17;;;0.90;;
63930;SDS011;50111;48.114;-2.066;2022-08-19T11:51:39;0.60;;;0.60;;
63930;SDS011;50111;48.114;-2.066;2022-08-19T11:54:06;1.50;;;0.65;;
63930;SDS011;50111;48.114;-2.066;2022-08-19T11:56:33;1.55;;;0.68;;
63930;SDS011;50111;48.114;-2.066;2022-08-19T11:59:00;2.72;;;0.80;;
63930;SDS011;50111;48.114;-2.066;2022-08-19T12:01:26;0.77;;;0.60;;
63930;SDS011;50111;48.114;-2.066;2022-08-19T12:03:53;0.85;;;0.77;;
63930;SDS011;50111;48.114;-2.066;2022-08-19T12:06:24;0.80;;;0.60;;
63930;SDS011;50111;48.114;-2.066;2022-08-19T12:08:54;1.48;;;1.08;;
63930;SDS011;50111;48.114;-2.066;2022-08-19T12:11:20;1.27;;;1.00;;
63930;SDS011;50111;48.114;-2.066;2022-08-19T12:13:46;1.20;;;0.88;;
63930;SDS011;50111;48.114;-2.066;2022-08-19T12:16:17;1.60;;;1.10;;
63930;SDS011;50111;48.114;-2.066;2022-08-19T12:18:44;2.50;;;0.85;;
63930;SDS011;50111;48.114;-2.066;2022-08-19T12:21:12;2.20;;;1.10;;
63930;SDS011;50111;48.114;-2.066;2022-08-19T12:23:38;1.08;;;0.80;;
63930;SDS011;50111;48.114;-2.066;2022-08-19T12:26:05;3.75;;;1.23;;
63930;SDS011;50111;48.114;-2.066;2022-08-19T12:28:31;2.13;;;1.17;;
63930;SDS011;50111;48.114;-2.066;2022-08-19T12:30:57;3.70;;;1.20;;
63930;SDS011;50111;48.114;-2.066;2022-08-19T12:33:23;5.10;;;1.08;;
63930;SDS011;50111;48.114;-2.066;2022-08-19T12:35:52;1.83;;;1.20;;
63930;SDS011;50111;48.114;-2.066;2022-08-19T12:38:19;2.67;;;1.15;;
63930;SDS011;50111;48.114;-2.066;2022-08-19T12:40:48;3.38;;;1.23;;
63930;SDS011;50111;48.114;-2.066;2022-08-19T12:43:16;2.38;;;1.30;;
63930;SDS011;50111;48.114;-2.066;2022-08-19T12:45:42;6.72;;;1.77;;
63930;SDS011;50111;48.114;-2.066;2022-08-19T12:48:10;2.97;;;1.10;;
63930;SDS011;50111;48.114;-2.066;2022-08-19T12:50:38;3.78;;;1.52;;
63930;SDS011;50111;48.114;-2.066;2022-08-19T12:53:04;3.33;;;1.42;;
63930;SDS011;50111;48.114;-2.066;2022-08-19T12:55:30;2.67;;;1.20;;
63930;SDS011;50111;48.114;-2.066;2022-08-19T12:57:56;2.85;;;1.10;;
63930;SDS011;50111;48.114;-2.066;2022-08-19T13:00:22;2.92;;;1.50;;
63930;SDS011;50111;48.114;-2.066;2022-08-19T13:02:50;1.80;;;0.90;;
63930;SDS011;50111;48.114;-2.066;2022-08-19T13:05:19;4.88;;;1.30;;
63930;SDS011;50111;48.114;-2.066;2022-08-19T13:07:47;3.03;;;1.38;;
63930;SDS011;50111;48.114;-2.066;2022-08-19T13:10:15;2.75;;;1.45;;
63930;SDS011;50111;48.114;-2.066;2022-08-19T13:12:41;1.25;;;1.10;;
63930;SDS011;50111;48.114;-2.066;2022-08-19T13:15:08;1.70;;;1.00;;
63930;SDS011;50111;48.114;-2.066;2022-08-19T13:17:34;3.25;;;1.13;;
63930;SDS011;50111;48.114;-2.066;2022-08-19T13:20:01;5.40;;;1.60;;
63930;SDS011;50111;48.114;-2.066;2022-08-19T13:22:27;2.90;;;1.02;;
63930;SDS011;50111;48.114;-2.066;2022-08-19T13:24:53;3.03;;;1.02;;
63930;SDS011;50111;48.114;-2.066;2022-08-19T13:27:19;1.00;;;0.80;;
63930;SDS011;50111;48.114;-2.066;2022-08-19T13:29:45;2.15;;;1.00;;
63930;SDS011;50111;48.114;-2.066;2022-08-19T13:32:29;3.55;;;1.00;;
63930;SDS011;50111;48.114;-2.066;2022-08-19T13:35:14;4.22;;;1.52;;
63930;SDS011;50111;48.114;-2.066;2022-08-19T13:37:40;1.30;;;0.80;;
63930;SDS011;50111;48.114;-2.066;2022-08-19T13:40:07;2.30;;;0.75;;
63930;SDS011;50111;48.114;-2.066;2022-08-19T13:42:39;0.82;;;0.70;;
63930;SDS011;50111;48.114;-2.066;2022-08-19T13:45:06;1.73;;;0.88;;
63930;SDS011;50111;48.114;-2.066;2022-08-19T13:47:32;0.82;;;0.70;;
63930;SDS011;50111;48.114;-2.066;2022-08-19T13:49:59;0.68;;;0.68;;
63930;SDS011;50111;48.114;-2.066;2022-08-19T13:52:25;1.40;;;1.00;;
63930;SDS011;50111;48.114;-2.066;2022-08-19T13:54:51;3.00;;;1.00;;
63930;SDS011;50111;48.114;-2.066;2022-08-19T13:57:18;1.95;;;1.33;;
63930;SDS011;50111;48.114;-2.066;2022-08-19T13:59:44;4.60;;;3.60;;
63930;SDS011;50111;48.114;-2.066;2022-08-19T14:02:10;4.00;;;1.45;;
63930;SDS011;50111;48.114;-2.066;2022-08-19T14:04:36;2.65;;;1.33;;
63930;SDS011;50111;48.114;-2.066;2022-08-19T14:07:03;2.42;;;1.30;;
63930;SDS011;50111;48.114;-2.066;2022-08-19T14:09:29;2.00;;;1.08;;
63930;SDS011;50111;48.114;-2.066;2022-08-19T14:11:55;2.38;;;1.17;;
63930;SDS011;50111;48.114;-2.066;2022-08-19T14:14:22;1.38;;;1.27;;
63930;SDS011;50111;48.114;-2.066;2022-08-19T14:16:48;1.27;;;1.02;;
63930;SDS011;50111;48.114;-2.066;2022-08-19T14:19:14;2.20;;;1.00;;
63930;SDS011;50111;48.114;-2.066;2022-08-19T14:21:40;1.75;;;0.93;;
63930;SDS011;50111;48.114;-2.066;2022-08-19T14:24:07;1.40;;;1.20;;
63930;SDS011;50111;48.114;-2.066;2022-08-19T14:26:33;1.65;;;0.90;;
63930;SDS011;50111;48.114;-2.066;2022-08-19T14:28:59;2.63;;;1.02;;
63930;SDS011;50111;48.114;-2.066;2022-08-19T14:31:26;2.20;;;1.10;;
63930;SDS011;50111;48.114;-2.066;2022-08-19T14:33:52;3.15;;;1.30;;
63930;SDS011;50111;48.114;-2.066;2022-08-19T14:36:19;1.65;;;1.20;;
63930;SDS011;50111;48.114;-2.066;2022-08-19T14:38:46;2.22;;;1.65;;
63930;SDS011;50111;48.114;-2.066;2022-08-19T14:41:17;2.85;;;1.10;;
63930;SDS011;50111;48.114;-2.066;2022-08-19T14:43:45;0.60;;;0.50;;
63930;SDS011;50111;48.114;-2.066;2022-08-19T14:46:11;2.65;;;0.80;;
63930;SDS011;50111;48.114;-2.066;2022-08-19T14:48:38;0.80;;;0.80;;
63930;SDS011;50111;48.114;-2.066;2022-08-19T14:51:05;2.72;;;1.20;;
63930;SDS011;50111;48.114;-2.066;2022-08-19T14:53:31;1.38;;;1.20;;
63930;SDS011;50111;48.114;-2.066;2022-08-19T14:55:58;3.80;;;1.27;;